createdAt,value
2022-11-26T00:02:21.468Z,31.30
2022-11-26T00:05:24.562Z,23.63
2022-11-26T00:08:35.326Z,28.38
2022-11-26T00:11:36.104Z,27.60
2022-11-26T00:14:37.126Z,15.70
2022-11-26T00:17:38.180Z,15.52
2022-11-26T00:20:39.431Z,22.70
2022-11-26T00:23:40.469Z,16.02
2022-11-26T00:26:41.317Z,14.75
2022-11-26T00:29:42.685Z,17.85
2022-11-26T00:32:43.516Z,16.73
2022-11-26T00:35:47.078Z,18.38
2022-11-26T00:38:54.281Z,21.05
2022-11-26T00:41:55.108Z,20.10
2022-11-26T00:44:55.798Z,13.80
2022-11-26T00:47:59.139Z,16.55
2022-11-26T00:51:00.131Z,15.30
2022-11-26T00:54:02.936Z,14.45
2022-11-26T00:57:03.731Z,15.52
2022-11-26T01:00:19.086Z,14.18
2022-11-26T01:03:20.678Z,13.00
2022-11-26T01:06:32.603Z,10.48
2022-11-26T01:09:33.529Z,8.75
2022-11-26T01:12:34.354Z,12.13
2022-11-26T01:15:35.164Z,10.57
2022-11-26T01:18:36.430Z,11.60
2022-11-26T01:21:37.499Z,11.45
2022-11-26T01:24:38.676Z,9.80
2022-11-26T01:27:40.399Z,13.18
2022-11-26T01:30:42.514Z,21.77
2022-11-26T01:33:45.361Z,12.10
2022-11-26T01:36:46.296Z,11.50
2022-11-26T01:39:46.977Z,14.88
2022-11-26T01:42:53.501Z,17.25
2022-11-26T01:45:56.511Z,16.27
2022-11-26T01:49:27.978Z,13.98
2022-11-26T01:52:28.959Z,19.80
2022-11-26T01:55:48.191Z,14.15
2022-11-26T01:59:02.939Z,17.65
2022-11-26T02:02:04.797Z,15.80
2022-11-26T02:05:23.499Z,19.00
2022-11-26T02:08:28.310Z,16.80
2022-11-26T02:11:29.478Z,18.45
2022-11-26T02:14:37.216Z,29.50
2022-11-26T02:17:58.194Z,23.85
2022-11-26T02:21:27.518Z,24.63
2022-11-26T02:24:50.870Z,24.00
2022-11-26T02:28:44.474Z,23.77
2022-11-26T02:32:09.746Z,23.95
2022-11-26T02:35:25.085Z,29.65
2022-11-26T02:38:33.157Z,31.40
2022-11-26T02:41:48.271Z,25.95
2022-11-26T02:44:49.972Z,25.63
2022-11-26T02:48:00.001Z,21.77
2022-11-26T02:51:12.542Z,27.08
2022-11-26T02:54:15.617Z,25.02
2022-11-26T02:57:23.597Z,21.05
2022-11-26T03:00:25.143Z,31.05
2022-11-26T03:03:36.342Z,40.13
2022-11-26T03:06:39.402Z,40.42
2022-11-26T03:09:54.464Z,39.47
2022-11-26T03:12:55.729Z,46.38
2022-11-26T03:15:56.672Z,53.55
2022-11-26T03:18:57.559Z,42.92
2022-11-26T03:21:58.654Z,53.67
2022-11-26T03:24:59.499Z,66.10
2022-11-26T03:28:00.306Z,75.72
2022-11-26T03:31:01.414Z,74.68
2022-11-26T03:34:02.067Z,78.70
2022-11-26T03:37:02.916Z,81.45
2022-11-26T03:40:04.340Z,78.60
2022-11-26T03:43:05.583Z,70.55
2022-11-26T03:46:06.472Z,57.60
2022-11-26T03:49:07.323Z,72.10
2022-11-26T03:52:08.160Z,60.05
2022-11-26T03:55:10.220Z,57.70
2022-11-26T03:58:10.914Z,61.65
2022-11-26T04:01:13.447Z,63.28
2022-11-26T04:04:14.663Z,52.28
2022-11-26T04:07:15.751Z,54.95
2022-11-26T04:10:17.209Z,56.30
2022-11-26T04:13:18.060Z,61.47
2022-11-26T04:16:20.821Z,50.20
2022-11-26T04:19:21.859Z,49.45
2022-11-26T04:22:22.604Z,43.78
2022-11-26T04:25:23.473Z,45.65
2022-11-26T04:28:26.266Z,32.15
2022-11-26T04:31:27.187Z,47.80
2022-11-26T04:34:28.197Z,39.10
2022-11-26T04:37:28.930Z,37.97
2022-11-26T04:40:29.999Z,41.75
2022-11-26T04:43:30.926Z,46.72
2022-11-26T04:46:32.051Z,48.97
2022-11-26T04:49:32.954Z,54.30
2022-11-26T04:52:33.837Z,47.83
2022-11-26T04:55:34.895Z,52.33
2022-11-26T04:58:36.049Z,51.75
2022-11-26T05:01:37.156Z,51.28
2022-11-26T05:04:38.327Z,59.92
2022-11-26T05:07:39.940Z,67.60
2022-11-26T05:10:41.474Z,74.90
2022-11-26T05:13:43.031Z,136.38
2022-11-26T05:16:44.255Z,236.35
2022-11-26T05:19:45.474Z,277.05
2022-11-26T05:22:46.266Z,486.90
2022-11-26T05:25:47.956Z,583.85
2022-11-26T05:28:49.158Z,635.20
2022-11-26T05:31:50.308Z,769.08
2022-11-26T05:34:54.507Z,351.27
2022-11-26T05:37:59.569Z,62.63
2022-11-26T05:41:00.210Z,59.72
2022-11-26T05:44:01.933Z,68.30
2022-11-26T05:47:03.604Z,58.28
2022-11-26T05:50:05.566Z,67.25
2022-11-26T05:53:06.807Z,52.38
2022-11-26T05:56:08.425Z,364.77
2022-11-26T05:59:11.253Z,382.00
2022-11-26T06:02:12.612Z,299.85
2022-11-26T06:05:14.049Z,37.63
2022-11-26T06:08:15.075Z,246.95
2022-11-26T06:11:15.873Z,44.72
2022-11-26T06:14:18.078Z,48.08
2022-11-26T06:17:19.657Z,60.88
2022-11-26T06:20:20.785Z,58.03
2022-11-26T06:23:21.862Z,55.92
2022-11-26T06:26:23.234Z,60.72
2022-11-26T06:29:27.896Z,70.32
2022-11-26T06:32:30.174Z,67.25
2022-11-26T06:35:30.858Z,80.85
2022-11-26T06:38:32.216Z,84.57
2022-11-26T06:41:33.713Z,90.70
2022-11-26T06:44:38.017Z,112.93
2022-11-26T06:47:39.056Z,100.18
2022-11-26T06:50:39.894Z,98.55
2022-11-26T06:53:40.985Z,95.28
2022-11-26T06:56:42.166Z,121.15
2022-11-26T06:59:43.547Z,109.63
2022-11-26T07:02:44.352Z,104.82
2022-11-26T07:05:45.230Z,106.53
2022-11-26T07:08:46.355Z,106.13
2022-11-26T07:11:49.407Z,98.35
2022-11-26T07:14:50.367Z,101.90
2022-11-26T07:17:51.508Z,105.50
2022-11-26T07:20:52.418Z,165.50
2022-11-26T07:23:54.108Z,161.85
2022-11-26T07:26:56.330Z,119.55
2022-11-26T07:30:00.286Z,114.55
2022-11-26T07:33:01.066Z,238.73
2022-11-26T07:36:05.473Z,100.97
2022-11-26T07:39:06.625Z,353.42
2022-11-26T07:42:07.771Z,445.13
2022-11-26T07:45:09.320Z,486.25
2022-11-26T07:48:15.383Z,165.88
2022-11-26T07:51:29.780Z,176.05
2022-11-26T07:54:30.845Z,236.55
2022-11-26T07:57:31.663Z,216.60
2022-11-26T08:00:32.875Z,84.05
2022-11-26T08:03:33.659Z,60.55
2022-11-26T08:06:34.765Z,67.60
2022-11-26T08:09:35.840Z,69.70
2022-11-26T08:12:36.737Z,66.15
2022-11-26T08:15:38.073Z,70.85
2022-11-26T08:18:39.782Z,72.35
2022-11-26T08:21:41.812Z,67.55
2022-11-26T08:24:43.139Z,65.65
2022-11-26T08:27:44.247Z,67.80
2022-11-26T08:30:46.545Z,73.07
2022-11-26T08:33:47.487Z,71.75
2022-11-26T08:36:48.627Z,71.00
2022-11-26T08:39:49.606Z,67.85
2022-11-26T08:42:50.489Z,70.85
2022-11-26T08:45:57.146Z,48.45
2022-11-26T08:48:58.627Z,45.63
2022-11-26T08:51:59.862Z,42.30
2022-11-26T08:55:00.518Z,35.70
2022-11-26T08:58:01.509Z,31.25
2022-11-26T09:01:16.277Z,33.53
2022-11-26T09:04:17.795Z,30.48
2022-11-26T09:07:18.826Z,27.02
2022-11-26T09:10:20.036Z,37.78
2022-11-26T09:13:21.471Z,28.52
2022-11-26T09:16:23.204Z,35.13
2022-11-26T09:19:25.525Z,30.92
2022-11-26T09:22:26.291Z,28.98
2022-11-26T09:25:27.012Z,27.73
2022-11-26T09:28:28.989Z,24.95
2022-11-26T09:31:30.898Z,27.15
2022-11-26T09:34:33.682Z,27.80
2022-11-26T09:37:34.895Z,30.40
2022-11-26T09:40:50.054Z,30.42
2022-11-26T09:44:22.299Z,33.97
2022-11-26T09:47:28.673Z,27.70
2022-11-26T09:50:35.538Z,27.95
2022-11-26T09:53:42.838Z,23.05
2022-11-26T09:56:43.621Z,25.58
2022-11-26T09:59:48.907Z,23.73
2022-11-26T10:02:56.529Z,20.70
2022-11-26T10:06:09.099Z,24.63
2022-11-26T10:09:28.846Z,22.77
2022-11-26T10:13:03.082Z,20.92
2022-11-26T10:16:36.403Z,25.92
2022-11-26T10:20:05.219Z,28.38
2022-11-26T10:23:18.946Z,17.20
2022-11-26T10:26:37.222Z,23.77
2022-11-26T10:29:44.108Z,14.43
2022-11-26T10:32:47.583Z,24.02
2022-11-26T10:35:50.143Z,20.85
2022-11-26T10:38:52.896Z,20.17
2022-11-26T10:41:53.716Z,19.15
2022-11-26T10:44:54.948Z,19.15
2022-11-26T10:48:26.422Z,16.27
2022-11-26T10:51:33.262Z,12.85
2022-11-26T10:54:39.376Z,23.15
2022-11-26T10:57:47.807Z,15.02
2022-11-26T11:00:48.789Z,14.15
2022-11-26T11:04:13.858Z,15.45
2022-11-26T11:07:41.328Z,10.48
2022-11-26T11:10:59.030Z,14.05
2022-11-26T11:14:00.116Z,13.20
2022-11-26T11:17:01.235Z,15.75
2022-11-26T11:20:41.548Z,11.80
2022-11-26T11:27:03.406Z,12.05
2022-11-26T11:30:04.915Z,12.90
2022-11-26T11:33:23.244Z,9.13
2022-11-26T11:36:29.439Z,8.23
2022-11-26T11:39:34.179Z,15.93
2022-11-26T11:42:35.019Z,8.35
2022-11-26T11:45:48.561Z,7.30
2022-11-26T11:49:39.003Z,7.50
2022-11-26T11:52:59.574Z,9.18
2022-11-26T11:56:26.928Z,8.88
2022-11-26T12:00:10.204Z,7.57
2022-11-26T12:03:27.972Z,10.03
2022-11-26T12:07:00.762Z,12.23
2022-11-26T12:10:23.070Z,11.88
2022-11-26T12:13:27.103Z,10.20
2022-11-26T12:16:38.063Z,14.75
2022-11-26T12:20:14.725Z,15.15
2022-11-26T12:23:28.414Z,16.23
2022-11-26T12:26:48.066Z,16.70
2022-11-26T12:29:57.817Z,14.45
2022-11-26T12:33:20.881Z,20.80
2022-11-26T12:36:39.891Z,19.10
2022-11-26T12:39:56.737Z,15.00
2022-11-26T12:43:13.553Z,14.80
2022-11-26T12:46:43.424Z,10.63
2022-11-26T12:50:07.464Z,14.13
2022-11-26T12:53:25.457Z,14.65
2022-11-26T12:56:51.107Z,13.82
2022-11-26T13:00:11.223Z,15.70
2022-11-26T13:03:18.885Z,16.42
2022-11-26T13:06:42.902Z,10.90
2022-11-26T13:10:10.567Z,14.63
2022-11-26T13:13:39.139Z,11.52
2022-11-26T13:17:02.274Z,10.27
2022-11-26T13:20:40.158Z,21.65
2022-11-26T13:24:21.848Z,20.95
2022-11-26T13:27:52.306Z,11.18
2022-11-26T13:31:05.993Z,8.70
2022-11-26T13:35:13.497Z,9.00
2022-11-26T13:38:37.272Z,10.93
2022-11-26T13:42:23.386Z,10.73
2022-11-26T13:46:02.443Z,10.10
2022-11-26T13:49:26.127Z,10.48
2022-11-26T13:52:42.422Z,12.20
2022-11-26T13:55:53.851Z,6.95
2022-11-26T13:59:02.870Z,7.82
2022-11-26T14:02:42.855Z,13.43
2022-11-26T14:05:49.635Z,13.27
2022-11-26T14:08:53.328Z,8.30
2022-11-26T14:11:57.021Z,11.93
2022-11-26T14:14:58.362Z,7.55
2022-11-26T14:17:59.651Z,11.90
2022-11-26T14:21:00.817Z,9.82
2022-11-26T14:24:02.931Z,8.60
2022-11-26T14:27:03.811Z,7.65
2022-11-26T14:30:07.664Z,8.82
2022-11-26T14:33:24.168Z,8.02
2022-11-26T14:36:29.070Z,10.30
2022-11-26T14:39:31.823Z,24.48
2022-11-26T14:42:32.887Z,11.35
2022-11-26T14:45:34.600Z,7.38
2022-11-26T14:48:43.701Z,7.15
2022-11-26T14:51:49.427Z,6.45
2022-11-26T14:54:59.326Z,8.30
2022-11-26T14:58:09.790Z,10.05
2022-11-26T15:01:27.288Z,10.57
2022-11-26T15:04:34.631Z,10.65
2022-11-26T15:10:47.683Z,9.35
2022-11-26T15:13:48.668Z,6.82
2022-11-26T15:16:58.078Z,8.85
2022-11-26T15:20:04.536Z,24.17
2022-11-26T15:23:06.894Z,14.50
2022-11-26T15:26:18.750Z,11.38
2022-11-26T15:29:41.556Z,10.38
2022-11-26T15:32:42.983Z,14.00
2022-11-26T15:35:44.261Z,10.70
2022-11-26T15:39:08.516Z,13.95
2022-11-26T15:42:29.074Z,10.65
2022-11-26T15:45:41.307Z,14.40
2022-11-26T15:48:57.487Z,10.07
2022-11-26T15:52:13.557Z,11.40
2022-11-26T15:55:30.194Z,9.20
2022-11-26T15:58:40.383Z,8.93
2022-11-26T16:01:46.639Z,11.35
2022-11-26T16:04:53.019Z,10.18
2022-11-26T16:08:23.318Z,11.80
2022-11-26T16:11:24.381Z,8.60
2022-11-26T16:14:33.999Z,8.68
2022-11-26T16:17:37.157Z,7.70
2022-11-26T16:20:38.425Z,8.52
2022-11-26T16:23:39.295Z,11.20
2022-11-26T16:27:25.259Z,11.45
2022-11-26T16:30:26.269Z,12.83
2022-11-26T16:33:29.090Z,7.90
2022-11-26T16:36:34.138Z,13.07
2022-11-26T16:39:40.512Z,12.25
2022-11-26T16:42:42.011Z,12.05
2022-11-26T16:45:43.277Z,12.00
2022-11-26T16:48:46.139Z,12.45
2022-11-26T16:51:46.940Z,13.10
2022-11-26T16:54:49.507Z,10.38
2022-11-26T16:57:56.660Z,12.95
2022-11-26T17:00:58.664Z,10.63
2022-11-26T17:03:59.839Z,17.00
2022-11-26T17:07:01.219Z,12.20
2022-11-26T17:10:04.427Z,14.93
2022-11-26T17:13:05.456Z,13.85
2022-11-26T17:16:15.762Z,11.45
2022-11-26T17:19:17.041Z,15.52
2022-11-26T17:22:17.727Z,21.95
2022-11-26T17:25:20.182Z,16.20
2022-11-26T17:28:23.333Z,15.50
2022-11-26T17:31:24.162Z,20.48
2022-11-26T17:34:26.213Z,15.90
2022-11-26T17:37:29.894Z,19.23
2022-11-26T17:40:30.825Z,23.65
2022-11-26T17:43:31.999Z,21.42
2022-11-26T17:46:42.855Z,23.38
2022-11-26T17:49:54.924Z,20.70
2022-11-26T17:52:56.259Z,20.53
2022-11-26T17:55:57.259Z,23.67
2022-11-26T17:59:02.746Z,30.98
2022-11-26T18:02:03.845Z,23.67
2022-11-26T18:05:05.197Z,25.33
2022-11-26T18:08:06.289Z,24.02
2022-11-26T18:11:07.954Z,19.70
2022-11-26T18:14:09.078Z,21.90
2022-11-26T18:17:12.163Z,21.85
2022-11-26T18:20:13.418Z,22.25
2022-11-26T18:23:14.254Z,22.33
2022-11-26T18:26:19.168Z,33.95
2022-11-26T18:29:20.332Z,29.05
2022-11-26T18:32:21.974Z,35.53
2022-11-26T18:35:23.198Z,29.58
2022-11-26T18:38:29.121Z,30.58
2022-11-26T18:41:30.600Z,38.88
2022-11-26T18:44:32.246Z,34.03
2022-11-26T18:47:33.646Z,37.95
2022-11-26T18:50:34.753Z,42.00
2022-11-26T18:53:35.835Z,40.08
2022-11-26T18:56:36.972Z,44.97
2022-11-26T18:59:38.501Z,46.03
2022-11-26T19:02:39.952Z,46.25
2022-11-26T19:05:44.685Z,46.45
2022-11-26T19:08:47.642Z,53.45
2022-11-26T19:11:48.616Z,48.08
2022-11-26T19:14:49.302Z,61.38
2022-11-26T19:17:50.102Z,52.53
2022-11-26T19:20:56.487Z,60.78
2022-11-26T19:24:01.656Z,55.83
2022-11-26T19:27:02.452Z,65.75
2022-11-26T19:30:03.755Z,58.60
2022-11-26T19:33:05.730Z,57.97
2022-11-26T19:36:13.192Z,55.97
2022-11-26T19:39:15.900Z,145.65
2022-11-26T19:42:16.717Z,103.35
2022-11-26T19:45:17.454Z,102.35
2022-11-26T19:48:18.593Z,57.30
2022-11-26T19:51:22.712Z,360.95
2022-11-26T19:54:23.662Z,295.35
2022-11-26T19:57:24.621Z,133.05
2022-11-26T20:00:25.829Z,80.45
2022-11-26T20:03:35.734Z,53.40
2022-11-26T20:06:39.303Z,54.67
2022-11-26T20:09:40.449Z,52.00
2022-11-26T20:12:41.719Z,51.42
2022-11-26T20:15:48.543Z,52.88
2022-11-26T20:18:50.651Z,43.15
2022-11-26T20:21:51.298Z,51.72
2022-11-26T20:24:52.106Z,47.30
2022-11-26T20:27:52.858Z,60.22
2022-11-26T20:30:53.906Z,60.85
2022-11-26T20:33:55.248Z,55.72
2022-11-26T20:36:56.590Z,70.65
2022-11-26T20:39:57.823Z,60.45
2022-11-26T20:42:58.810Z,75.35
2022-11-26T20:46:07.624Z,83.03
2022-11-26T20:49:10.986Z,74.38
2022-11-26T20:52:12.146Z,80.15
2022-11-26T20:55:13.073Z,91.00
2022-11-26T20:58:13.824Z,83.50
2022-11-26T21:01:40.988Z,268.27
2022-11-26T21:04:42.276Z,243.20
2022-11-26T21:07:43.336Z,98.55
2022-11-26T21:10:44.956Z,119.82
2022-11-26T21:13:45.722Z,96.05
2022-11-26T21:16:46.816Z,87.40
2022-11-26T21:19:48.451Z,82.32
2022-11-26T21:22:49.323Z,78.93
2022-11-26T21:25:50.511Z,78.40
2022-11-26T21:29:00.179Z,76.90
2022-11-26T21:32:01.116Z,76.82
2022-11-26T21:35:02.446Z,81.82
2022-11-26T21:38:05.278Z,83.15
2022-11-26T21:41:11.142Z,89.82
2022-11-26T21:44:12.895Z,84.75
2022-11-26T21:47:16.942Z,72.55
2022-11-26T21:50:19.582Z,83.13
2022-11-26T21:53:21.506Z,65.75
2022-11-26T21:56:28.699Z,61.40
2022-11-26T21:59:29.862Z,64.03
2022-11-26T22:02:30.998Z,58.28
2022-11-26T22:05:32.995Z,58.20
2022-11-26T22:08:35.042Z,48.92
2022-11-26T22:11:40.543Z,63.55
2022-11-26T22:14:41.582Z,47.95
2022-11-26T22:17:42.446Z,52.42
2022-11-26T22:20:51.571Z,49.20
2022-11-26T22:23:53.359Z,44.42
2022-11-26T22:26:54.766Z,43.83
2022-11-26T22:29:55.962Z,48.03
2022-11-26T22:32:56.771Z,45.60
2022-11-26T22:36:01.579Z,40.25
2022-11-26T22:39:04.766Z,31.25
2022-11-26T22:42:05.621Z,38.17
2022-11-26T22:45:07.661Z,32.42
2022-11-26T22:48:11.324Z,36.75
2022-11-26T22:51:12.647Z,33.47
2022-11-26T22:54:15.943Z,36.22
2022-11-26T22:57:20.984Z,40.50
2022-11-26T23:00:46.439Z,44.60
2022-11-26T23:03:48.530Z,39.60
2022-11-26T23:06:49.952Z,41.50
2022-11-26T23:09:51.383Z,40.92
2022-11-26T23:12:52.694Z,39.03
2022-11-26T23:15:53.609Z,38.10
2022-11-26T23:18:57.539Z,33.50
2022-11-26T23:21:58.754Z,36.25
2022-11-26T23:24:59.511Z,41.70
2022-11-26T23:28:00.272Z,38.90
2022-11-26T23:31:16.653Z,33.60
2022-11-26T23:34:17.909Z,35.03
2022-11-26T23:37:19.127Z,40.05
2022-11-26T23:40:20.020Z,35.92
2022-11-26T23:43:21.256Z,34.05
2022-11-26T23:46:29.625Z,36.58
2022-11-26T23:49:30.541Z,37.42
2022-11-26T23:52:31.604Z,34.28
2022-11-26T23:55:33.662Z,36.65
2022-11-26T23:58:34.856Z,34.47
